sensor_id;sensor_type;location;lat;lon;timestamp;temperature;humidity
67862;DHT22;54665;51.462;6.698;2023-02-01T00:02:07;6.48;78.64
67862;DHT22;54665;51.462;6.698;2023-02-01T00:04:34;6.60;78.50
67862;DHT22;54665;51.462;6.698;2023-02-01T00:06:59;6.47;78.74
67862;DHT22;54665;51.462;6.698;2023-02-01T00:09:26;6.44;78.41
67862;DHT22;54665;51.462;6.698;2023-02-01T00:11:52;6.54;78.04
67862;DHT22;54665;51.462;6.698;2023-02-01T00:14:17;6.50;77.93
67862;DHT22;54665;51.462;6.698;2023-02-01T00:16:44;6.67;77.41
67862;DHT22;54665;51.462;6.698;2023-02-01T00:19:13;6.52;77.79
67862;DHT22;54665;51.462;6.698;2023-02-01T00:21:39;6.63;77.77
67862;DHT22;54665;51.462;6.698;2023-02-01T00:24:04;6.67;77.18
67862;DHT22;54665;51.462;6.698;2023-02-01T00:26:40;6.63;77.24
67862;DHT22;54665;51.462;6.698;2023-02-01T00:29:10;6.52;77.46
67862;DHT22;54665;51.462;6.698;2023-02-01T00:31:36;6.58;77.59
67862;DHT22;54665;51.462;6.698;2023-02-01T00:34:02;6.67;77.24
67862;DHT22;54665;51.462;6.698;2023-02-01T00:36:27;6.65;77.11
67862;DHT22;54665;51.462;6.698;2023-02-01T00:38:54;6.65;77.52
67862;DHT22;54665;51.462;6.698;2023-02-01T00:41:21;6.55;77.93
67862;DHT22;54665;51.462;6.698;2023-02-01T00:43:47;6.57;78.22
67862;DHT22;54665;51.462;6.698;2023-02-01T00:46:14;6.58;78.36
67862;DHT22;54665;51.462;6.698;2023-02-01T00:48:40;6.67;78.47
67862;DHT22;54665;51.462;6.698;2023-02-01T00:51:08;6.64;78.84
67862;DHT22;54665;51.462;6.698;2023-02-01T00:53:34;6.82;78.68
67862;DHT22;54665;51.462;6.698;2023-02-01T00:56:00;6.77;79.04
67862;DHT22;54665;51.462;6.698;2023-02-01T00:58:26;6.77;79.55
67862;DHT22;54665;51.462;6.698;2023-02-01T01:01:05;6.87;79.58
67862;DHT22;54665;51.462;6.698;2023-02-01T01:03:32;6.93;79.60
67862;DHT22;54665;51.462;6.698;2023-02-01T01:06:00;7.08;79.28
67862;DHT22;54665;51.462;6.698;2023-02-01T01:08:27;7.09;79.36
67862;DHT22;54665;51.462;6.698;2023-02-01T01:10:52;7.01;79.74
67862;DHT22;54665;51.462;6.698;2023-02-01T01:13:18;7.02;79.60
67862;DHT22;54665;51.462;6.698;2023-02-01T01:15:45;7.08;79.54
67862;DHT22;54665;51.462;6.698;2023-02-01T01:18:11;7.05;79.17
67862;DHT22;54665;51.462;6.698;2023-02-01T01:20:39;6.87;79.60
67862;DHT22;54665;51.462;6.698;2023-02-01T01:23:05;6.88;79.62
67862;DHT22;54665;51.462;6.698;2023-02-01T01:25:31;6.74;79.56
67862;DHT22;54665;51.462;6.698;2023-02-01T01:27:57;6.85;79.46
67862;DHT22;54665;51.462;6.698;2023-02-01T01:30:23;6.81;79.33
67862;DHT22;54665;51.462;6.698;2023-02-01T01:32:48;6.65;79.60
67862;DHT22;54665;51.462;6.698;2023-02-01T01:35:14;6.70;79.26
67862;DHT22;54665;51.462;6.698;2023-02-01T01:37:39;6.77;78.67
67862;DHT22;54665;51.462;6.698;2023-02-01T01:40:07;6.87;78.10
67862;DHT22;54665;51.462;6.698;2023-02-01T01:42:40;6.78;77.91
67862;DHT22;54665;51.462;6.698;2023-02-01T01:45:25;6.84;77.98
67862;DHT22;54665;51.462;6.698;2023-02-01T01:47:55;6.89;77.61
67862;DHT22;54665;51.462;6.698;2023-02-01T01:50:43;6.72;77.40
67862;DHT22;54665;51.462;6.698;2023-02-01T01:53:12;6.79;77.43
67862;DHT22;54665;51.462;6.698;2023-02-01T01:55:42;6.75;77.27
67862;DHT22;54665;51.462;6.698;2023-02-01T01:58:12;6.55;77.13
67862;DHT22;54665;51.462;6.698;2023-02-01T02:00:41;6.71;77.07
67862;DHT22;54665;51.462;6.698;2023-02-01T02:03:28;6.64;76.78
67862;DHT22;54665;51.462;6.698;2023-02-01T02:05:57;6.55;77.26
67862;DHT22;54665;51.462;6.698;2023-02-01T02:08:24;6.48;77.15
67862;DHT22;54665;51.462;6.698;2023-02-01T02:10:51;6.38;77.27
67862;DHT22;54665;51.462;6.698;2023-02-01T02:13:37;6.27;77.49
67862;DHT22;54665;51.462;6.698;2023-02-01T02:36:30;6.09;76.72
67862;DHT22;54665;51.462;6.698;2023-02-01T02:39:23;5.86;77.50
67862;DHT22;54665;51.462;6.698;2023-02-01T02:45:11;5.60;78.39
67862;DHT22;54665;51.462;6.698;2023-02-01T02:48:14;5.39;78.93
67862;DHT22;54665;51.462;6.698;2023-02-01T02:56:42;5.51;78.43
67862;DHT22;54665;51.462;6.698;2023-02-01T02:59:27;5.63;78.32
67862;DHT22;54665;51.462;6.698;2023-02-01T03:02:12;5.52;78.00
67862;DHT22;54665;51.462;6.698;2023-02-01T03:05:00;5.69;77.47
67862;DHT22;54665;51.462;6.698;2023-02-01T03:07:49;5.69;77.82
67862;DHT22;54665;51.462;6.698;2023-02-01T03:13:09;5.69;77.53
67862;DHT22;54665;51.462;6.698;2023-02-01T03:15:46;5.86;77.46
67862;DHT22;54665;51.462;6.698;2023-02-01T03:18:18;6.03;77.19
67862;DHT22;54665;51.462;6.698;2023-02-01T03:20:49;6.06;77.34
67862;DHT22;54665;51.462;6.698;2023-02-01T03:23:20;6.24;76.82
67862;DHT22;54665;51.462;6.698;2023-02-01T03:25:51;6.16;76.64
67862;DHT22;54665;51.462;6.698;2023-02-01T03:28:23;6.17;76.68
67862;DHT22;54665;51.462;6.698;2023-02-01T03:30:49;6.23;76.73
67862;DHT22;54665;51.462;6.698;2023-02-01T03:33:18;6.31;76.91
67862;DHT22;54665;51.462;6.698;2023-02-01T03:38:58;6.34;76.95
67862;DHT22;54665;51.462;6.698;2023-02-01T03:41:37;6.42;76.57
67862;DHT22;54665;51.462;6.698;2023-02-01T03:44:19;6.47;76.50
67862;DHT22;54665;51.462;6.698;2023-02-01T03:52:32;6.45;76.70
67862;DHT22;54665;51.462;6.698;2023-02-01T03:55:03;6.57;76.46
67862;DHT22;54665;51.462;6.698;2023-02-01T03:57:37;6.47;76.37
67862;DHT22;54665;51.462;6.698;2023-02-01T04:00:07;6.54;76.73
67862;DHT22;54665;51.462;6.698;2023-02-01T04:02:40;6.60;76.56
67862;DHT22;54665;51.462;6.698;2023-02-01T04:05:07;6.33;77.31
67862;DHT22;54665;51.462;6.698;2023-02-01T04:07:33;6.55;76.90
67862;DHT22;54665;51.462;6.698;2023-02-01T04:09:58;6.47;76.62
67862;DHT22;54665;51.462;6.698;2023-02-01T04:12:26;6.17;77.65
67862;DHT22;54665;51.462;6.698;2023-02-01T04:14:52;6.24;77.64
67862;DHT22;54665;51.462;6.698;2023-02-01T04:17:17;6.17;77.72
67862;DHT22;54665;51.462;6.698;2023-02-01T04:19:43;6.06;78.33
67862;DHT22;54665;51.462;6.698;2023-02-01T04:22:09;6.09;78.30
67862;DHT22;54665;51.462;6.698;2023-02-01T04:24:34;6.20;78.43
67862;DHT22;54665;51.462;6.698;2023-02-01T04:27:00;6.29;78.04
67862;DHT22;54665;51.462;6.698;2023-02-01T04:29:28;6.26;78.35
67862;DHT22;54665;51.462;6.698;2023-02-01T04:31:53;6.40;77.81
67862;DHT22;54665;51.462;6.698;2023-02-01T04:34:19;6.24;78.15
67862;DHT22;54665;51.462;6.698;2023-02-01T04:36:44;6.20;78.44
67862;DHT22;54665;51.462;6.698;2023-02-01T04:39:09;6.52;77.94
67862;DHT22;54665;51.462;6.698;2023-02-01T04:41:35;6.38;77.83
67862;DHT22;54665;51.462;6.698;2023-02-01T04:44:01;6.45;77.82
67862;DHT22;54665;51.462;6.698;2023-02-01T04:46:27;6.51;77.50
67862;DHT22;54665;51.462;6.698;2023-02-01T04:49:01;6.45;77.85
67862;DHT22;54665;51.462;6.698;2023-02-01T04:51:27;6.45;77.75
67862;DHT22;54665;51.462;6.698;2023-02-01T04:53:53;6.16;78.33
67862;DHT22;54665;51.462;6.698;2023-02-01T04:56:21;6.30;78.27
67862;DHT22;54665;51.462;6.698;2023-02-01T04:58:49;6.21;78.38
67862;DHT22;54665;51.462;6.698;2023-02-01T05:01:15;6.27;78.30
67862;DHT22;54665;51.462;6.698;2023-02-01T05:03:40;6.06;79.00
67862;DHT22;54665;51.462;6.698;2023-02-01T05:06:06;6.06;79.01
67862;DHT22;54665;51.462;6.698;2023-02-01T05:08:32;6.07;78.86
67862;DHT22;54665;51.462;6.698;2023-02-01T05:10:58;6.11;78.85
67862;DHT22;54665;51.462;6.698;2023-02-01T05:13:24;5.97;79.14
67862;DHT22;54665;51.462;6.698;2023-02-01T05:16:08;6.02;79.24
67862;DHT22;54665;51.462;6.698;2023-02-01T05:18:34;5.99;79.42
67862;DHT22;54665;51.462;6.698;2023-02-01T05:21:00;6.00;79.41
67862;DHT22;54665;51.462;6.698;2023-02-01T05:23:50;6.13;78.96
67862;DHT22;54665;51.462;6.698;2023-02-01T05:26:37;5.85;79.91
67862;DHT22;54665;51.462;6.698;2023-02-01T05:29:06;5.86;80.05
67862;DHT22;54665;51.462;6.698;2023-02-01T05:31:35;5.86;79.91
67862;DHT22;54665;51.462;6.698;2023-02-01T05:34:01;5.89;80.08
67862;DHT22;54665;51.462;6.698;2023-02-01T05:36:30;5.92;79.73
67862;DHT22;54665;51.462;6.698;2023-02-01T05:38:55;5.78;80.05
67862;DHT22;54665;51.462;6.698;2023-02-01T05:41:22;5.85;80.01
67862;DHT22;54665;51.462;6.698;2023-02-01T05:43:51;5.85;79.92
67862;DHT22;54665;51.462;6.698;2023-02-01T05:46:16;5.79;80.22
67862;DHT22;54665;51.462;6.698;2023-02-01T05:48:43;5.88;80.20
67862;DHT22;54665;51.462;6.698;2023-02-01T05:51:15;5.88;79.99
67862;DHT22;54665;51.462;6.698;2023-02-01T05:53:41;6.03;79.69
67862;DHT22;54665;51.462;6.698;2023-02-01T05:56:10;5.96;79.80
67862;DHT22;54665;51.462;6.698;2023-02-01T05:58:39;5.92;80.18
67862;DHT22;54665;51.462;6.698;2023-02-01T06:01:04;5.97;79.55
67862;DHT22;54665;51.462;6.698;2023-02-01T06:03:30;6.11;79.35
67862;DHT22;54665;51.462;6.698;2023-02-01T06:06:16;6.26;78.94
67862;DHT22;54665;51.462;6.698;2023-02-01T06:08:50;6.27;79.06
67862;DHT22;54665;51.462;6.698;2023-02-01T06:11:24;6.26;78.93
67862;DHT22;54665;51.462;6.698;2023-02-01T06:13:52;6.26;78.77
67862;DHT22;54665;51.462;6.698;2023-02-01T06:16:17;6.45;78.39
67862;DHT22;54665;51.462;6.698;2023-02-01T06:18:46;6.40;78.45
67862;DHT22;54665;51.462;6.698;2023-02-01T06:21:14;6.57;78.13
67862;DHT22;54665;51.462;6.698;2023-02-01T06:23:51;6.41;78.72
67862;DHT22;54665;51.462;6.698;2023-02-01T06:26:19;6.55;78.25
67862;DHT22;54665;51.462;6.698;2023-02-01T06:28:48;6.51;78.20
67862;DHT22;54665;51.462;6.698;2023-02-01T06:31:20;6.38;78.35
67862;DHT22;54665;51.462;6.698;2023-02-01T06:36:49;6.61;77.59
67862;DHT22;54665;51.462;6.698;2023-02-01T06:39:14;6.64;77.50
67862;DHT22;54665;51.462;6.698;2023-02-01T06:41:48;6.71;77.20
67862;DHT22;54665;51.462;6.698;2023-02-01T06:44:39;6.75;77.25
67862;DHT22;54665;51.462;6.698;2023-02-01T06:47:08;6.68;77.34
67862;DHT22;54665;51.462;6.698;2023-02-01T06:49:36;6.72;77.87
67862;DHT22;54665;51.462;6.698;2023-02-01T06:52:02;6.61;77.77
67862;DHT22;54665;51.462;6.698;2023-02-01T06:54:31;6.55;77.58
67862;DHT22;54665;51.462;6.698;2023-02-01T06:56:58;6.72;77.49
67862;DHT22;54665;51.462;6.698;2023-02-01T06:59:25;6.55;77.55
67862;DHT22;54665;51.462;6.698;2023-02-01T07:01:51;6.72;77.15
67862;DHT22;54665;51.462;6.698;2023-02-01T07:04:18;6.57;77.86
67862;DHT22;54665;51.462;6.698;2023-02-01T07:06:46;6.67;77.65
67862;DHT22;54665;51.462;6.698;2023-02-01T07:09:11;6.89;77.15
67862;DHT22;54665;51.462;6.698;2023-02-01T07:11:39;6.68;77.44
67862;DHT22;54665;51.462;6.698;2023-02-01T07:14:12;6.77;77.46
67862;DHT22;54665;51.462;6.698;2023-02-01T07:16:40;6.65;77.71
67862;DHT22;54665;51.462;6.698;2023-02-01T07:19:06;6.89;77.45
67862;DHT22;54665;51.462;6.698;2023-02-01T07:21:38;6.75;77.46
67862;DHT22;54665;51.462;6.698;2023-02-01T07:24:04;6.85;77.56
67862;DHT22;54665;51.462;6.698;2023-02-01T07:26:32;7.02;77.38
67862;DHT22;54665;51.462;6.698;2023-02-01T07:28:58;6.75;77.74
67862;DHT22;54665;51.462;6.698;2023-02-01T07:31:26;6.93;77.83
67862;DHT22;54665;51.462;6.698;2023-02-01T07:33:54;7.09;77.17
67862;DHT22;54665;51.462;6.698;2023-02-01T07:36:21;6.77;77.83
67862;DHT22;54665;51.462;6.698;2023-02-01T07:38:47;6.85;78.20
67862;DHT22;54665;51.462;6.698;2023-02-01T07:41:14;6.71;78.43
67862;DHT22;54665;51.462;6.698;2023-02-01T07:43:39;6.79;78.24
67862;DHT22;54665;51.462;6.698;2023-02-01T07:46:07;6.88;78.11
67862;DHT22;54665;51.462;6.698;2023-02-01T07:48:33;6.75;78.02
67862;DHT22;54665;51.462;6.698;2023-02-01T07:51:05;6.89;78.21
67862;DHT22;54665;51.462;6.698;2023-02-01T07:53:32;6.89;78.24
67862;DHT22;54665;51.462;6.698;2023-02-01T07:55:58;6.70;78.33
67862;DHT22;54665;51.462;6.698;2023-02-01T07:58:24;6.64;78.57
67862;DHT22;54665;51.462;6.698;2023-02-01T08:00:50;6.65;79.25
67862;DHT22;54665;51.462;6.698;2023-02-01T08:03:37;6.78;78.67
67862;DHT22;54665;51.462;6.698;2023-02-01T08:06:03;6.58;79.19
67862;DHT22;54665;51.462;6.698;2023-02-01T08:08:29;6.64;79.41
67862;DHT22;54665;51.462;6.698;2023-02-01T08:11:00;6.68;78.72
67862;DHT22;54665;51.462;6.698;2023-02-01T08:13:26;6.99;78.34
67862;DHT22;54665;51.462;6.698;2023-02-01T08:15:51;6.70;78.81
67862;DHT22;54665;51.462;6.698;2023-02-01T08:18:17;6.54;78.97
67862;DHT22;54665;51.462;6.698;2023-02-01T08:20:44;6.68;78.91
67862;DHT22;54665;51.462;6.698;2023-02-01T08:23:11;6.91;78.35
67862;DHT22;54665;51.462;6.698;2023-02-01T08:25:38;6.65;79.08
67862;DHT22;54665;51.462;6.698;2023-02-01T08:28:06;6.63;78.81
67862;DHT22;54665;51.462;6.698;2023-02-01T08:30:31;6.77;78.93
67862;DHT22;54665;51.462;6.698;2023-02-01T08:32:57;6.77;78.69
67862;DHT22;54665;51.462;6.698;2023-02-01T08:35:23;7.01;78.36
67862;DHT22;54665;51.462;6.698;2023-02-01T08:37:51;6.77;78.19
67862;DHT22;54665;51.462;6.698;2023-02-01T08:40:16;6.87;78.50
67862;DHT22;54665;51.462;6.698;2023-02-01T08:42:42;6.96;78.19
67862;DHT22;54665;51.462;6.698;2023-02-01T08:45:21;7.22;77.13
67862;DHT22;54665;51.462;6.698;2023-02-01T08:47:50;7.05;77.89
67862;DHT22;54665;51.462;6.698;2023-02-01T08:50:19;7.22;77.32
67862;DHT22;54665;51.462;6.698;2023-02-01T08:52:46;7.16;77.38
67862;DHT22;54665;51.462;6.698;2023-02-01T08:55:12;7.18;77.32
67862;DHT22;54665;51.462;6.698;2023-02-01T08:57:39;7.20;77.75
67862;DHT22;54665;51.462;6.698;2023-02-01T09:00:08;7.20;77.24
67862;DHT22;54665;51.462;6.698;2023-02-01T09:02:35;7.13;77.04
67862;DHT22;54665;51.462;6.698;2023-02-01T09:05:00;7.12;77.43
67862;DHT22;54665;51.462;6.698;2023-02-01T09:07:26;7.23;77.08
67862;DHT22;54665;51.462;6.698;2023-02-01T09:09:51;7.15;76.95
67862;DHT22;54665;51.462;6.698;2023-02-01T09:12:17;7.19;77.13
67862;DHT22;54665;51.462;6.698;2023-02-01T09:14:44;7.24;77.09
67862;DHT22;54665;51.462;6.698;2023-02-01T09:17:09;7.22;77.13
67862;DHT22;54665;51.462;6.698;2023-02-01T09:19:36;7.15;76.72
67862;DHT22;54665;51.462;6.698;2023-02-01T09:22:01;7.09;77.34
67862;DHT22;54665;51.462;6.698;2023-02-01T09:24:27;7.03;77.11
67862;DHT22;54665;51.462;6.698;2023-02-01T09:26:52;7.19;77.34
67862;DHT22;54665;51.462;6.698;2023-02-01T09:29:18;7.24;76.40
67862;DHT22;54665;51.462;6.698;2023-02-01T09:31:43;7.54;75.47
67862;DHT22;54665;51.462;6.698;2023-02-01T09:34:09;7.29;76.72
67862;DHT22;54665;51.462;6.698;2023-02-01T09:36:35;7.34;76.57
67862;DHT22;54665;51.462;6.698;2023-02-01T09:39:00;7.37;76.56
67862;DHT22;54665;51.462;6.698;2023-02-01T09:47:11;7.75;75.42
67862;DHT22;54665;51.462;6.698;2023-02-01T09:49:41;7.71;75.02
67862;DHT22;54665;51.462;6.698;2023-02-01T09:52:12;7.54;75.18
67862;DHT22;54665;51.462;6.698;2023-02-01T09:54:40;7.61;75.62
67862;DHT22;54665;51.462;6.698;2023-02-01T09:57:13;7.64;75.52
67862;DHT22;54665;51.462;6.698;2023-02-01T09:59:43;7.75;74.63
67862;DHT22;54665;51.462;6.698;2023-02-01T10:02:35;7.53;75.64
67862;DHT22;54665;51.462;6.698;2023-02-01T10:05:04;7.66;75.57
67862;DHT22;54665;51.462;6.698;2023-02-01T10:13:09;8.53;72.53
67862;DHT22;54665;51.462;6.698;2023-02-01T10:18:36;8.14;74.16
67862;DHT22;54665;51.462;6.698;2023-02-01T10:27:17;7.97;74.54
67862;DHT22;54665;51.462;6.698;2023-02-01T10:29:51;8.24;74.20
67862;DHT22;54665;51.462;6.698;2023-02-01T10:32:24;7.91;74.41
67862;DHT22;54665;51.462;6.698;2023-02-01T10:34:59;7.95;74.88
67862;DHT22;54665;51.462;6.698;2023-02-01T10:37:27;8.22;73.58
67862;DHT22;54665;51.462;6.698;2023-02-01T10:39:55;8.35;73.31
67862;DHT22;54665;51.462;6.698;2023-02-01T10:42:25;8.20;73.69
67862;DHT22;54665;51.462;6.698;2023-02-01T10:44:51;8.24;73.40
67862;DHT22;54665;51.462;6.698;2023-02-01T10:47:19;8.29;73.19
67862;DHT22;54665;51.462;6.698;2023-02-01T10:52:38;8.43;72.78
67862;DHT22;54665;51.462;6.698;2023-02-01T10:55:38;8.18;73.18
67862;DHT22;54665;51.462;6.698;2023-02-01T10:58:07;8.11;73.70
67862;DHT22;54665;51.462;6.698;2023-02-01T11:00:47;8.06;73.52
67862;DHT22;54665;51.462;6.698;2023-02-01T11:03:44;8.46;72.79
67862;DHT22;54665;51.462;6.698;2023-02-01T11:06:39;8.83;71.38
67862;DHT22;54665;51.462;6.698;2023-02-01T11:09:21;8.62;71.98
67862;DHT22;54665;51.462;6.698;2023-02-01T11:14:18;8.53;72.85
67862;DHT22;54665;51.462;6.698;2023-02-01T11:20:04;8.45;72.97
67862;DHT22;54665;51.462;6.698;2023-02-01T11:22:32;8.62;73.26
67862;DHT22;54665;51.462;6.698;2023-02-01T11:24:59;8.31;73.11
67862;DHT22;54665;51.462;6.698;2023-02-01T11:27:32;8.20;73.95
67862;DHT22;54665;51.462;6.698;2023-02-01T11:30:01;8.35;73.18
67862;DHT22;54665;51.462;6.698;2023-02-01T11:32:30;8.42;73.05
67862;DHT22;54665;51.462;6.698;2023-02-01T11:35:00;8.57;73.05
67862;DHT22;54665;51.462;6.698;2023-02-01T11:40:02;8.21;75.07
67862;DHT22;54665;51.462;6.698;2023-02-01T11:42:32;8.31;74.72
67862;DHT22;54665;51.462;6.698;2023-02-01T11:45:20;8.24;75.97
67862;DHT22;54665;51.462;6.698;2023-02-01T11:47:52;8.25;75.69
67862;DHT22;54665;51.462;6.698;2023-02-01T11:50:38;7.85;76.38
67862;DHT22;54665;51.462;6.698;2023-02-01T11:56:00;8.05;77.62
67862;DHT22;54665;51.462;6.698;2023-02-01T12:09:40;7.99;75.24
67862;DHT22;54665;51.462;6.698;2023-02-01T12:12:19;8.21;74.62
67862;DHT22;54665;51.462;6.698;2023-02-01T12:17:41;8.29;73.31
67862;DHT22;54665;51.462;6.698;2023-02-01T12:31:25;8.45;71.97
67862;DHT22;54665;51.462;6.698;2023-02-01T12:39:45;8.66;71.07
67862;DHT22;54665;51.462;6.698;2023-02-01T12:42:14;8.49;71.04
67862;DHT22;54665;51.462;6.698;2023-02-01T12:44:55;8.55;70.50
67862;DHT22;54665;51.462;6.698;2023-02-01T12:47:46;8.42;71.21
67862;DHT22;54665;51.462;6.698;2023-02-01T12:50:40;8.69;70.78
67862;DHT22;54665;51.462;6.698;2023-02-01T12:53:37;8.86;70.67
67862;DHT22;54665;51.462;6.698;2023-02-01T12:56:12;8.67;70.95
67862;DHT22;54665;51.462;6.698;2023-02-01T12:58:43;8.56;71.43
67862;DHT22;54665;51.462;6.698;2023-02-01T13:01:22;8.63;71.92
67862;DHT22;54665;51.462;6.698;2023-02-01T13:03:57;8.64;72.28
67862;DHT22;54665;51.462;6.698;2023-02-01T13:12:51;8.59;73.37
67862;DHT22;54665;51.462;6.698;2023-02-01T13:15:42;8.31;73.86
67862;DHT22;54665;51.462;6.698;2023-02-01T13:18:15;8.43;73.22
67862;DHT22;54665;51.462;6.698;2023-02-01T13:21:03;8.63;73.14
67862;DHT22;54665;51.462;6.698;2023-02-01T13:23:35;8.80;72.84
67862;DHT22;54665;51.462;6.698;2023-02-01T13:26:04;8.76;72.63
67862;DHT22;54665;51.462;6.698;2023-02-01T13:28:46;8.67;71.84
67862;DHT22;54665;51.462;6.698;2023-02-01T13:38:43;8.84;71.76
67862;DHT22;54665;51.462;6.698;2023-02-01T13:41:27;8.80;71.57
67862;DHT22;54665;51.462;6.698;2023-02-01T13:44:00;8.86;71.50
67862;DHT22;54665;51.462;6.698;2023-02-01T13:46:31;8.77;71.47
67862;DHT22;54665;51.462;6.698;2023-02-01T13:49:04;8.99;71.32
67862;DHT22;54665;51.462;6.698;2023-02-01T13:51:34;9.11;70.99
67862;DHT22;54665;51.462;6.698;2023-02-01T13:54:25;9.07;71.10
67862;DHT22;54665;51.462;6.698;2023-02-01T13:56:52;8.99;71.38
67862;DHT22;54665;51.462;6.698;2023-02-01T13:59:49;8.94;70.63
67862;DHT22;54665;51.462;6.698;2023-02-01T14:15:20;9.25;70.55
67862;DHT22;54665;51.462;6.698;2023-02-01T14:17:47;9.20;69.93
67862;DHT22;54665;51.462;6.698;2023-02-01T14:20:42;9.32;70.26
67862;DHT22;54665;51.462;6.698;2023-02-01T14:29:37;9.20;70.49
67862;DHT22;54665;51.462;6.698;2023-02-01T14:32:16;9.11;70.39
67862;DHT22;54665;51.462;6.698;2023-02-01T14:37:35;9.00;70.37
67862;DHT22;54665;51.462;6.698;2023-02-01T14:40:05;9.13;70.37
67862;DHT22;54665;51.462;6.698;2023-02-01T14:47:50;8.90;70.63
67862;DHT22;54665;51.462;6.698;2023-02-01T15:04:11;9.24;70.11
67862;DHT22;54665;51.462;6.698;2023-02-01T15:06:42;9.00;70.74
67862;DHT22;54665;51.462;6.698;2023-02-01T15:14:40;9.10;70.91
67862;DHT22;54665;51.462;6.698;2023-02-01T15:17:22;9.14;71.24
67862;DHT22;54665;51.462;6.698;2023-02-01T15:19:58;9.13;71.65
67862;DHT22;54665;51.462;6.698;2023-02-01T15:22:24;9.01;71.19
67862;DHT22;54665;51.462;6.698;2023-02-01T15:24:56;9.03;71.35
67862;DHT22;54665;51.462;6.698;2023-02-01T15:27:22;9.20;70.52
67862;DHT22;54665;51.462;6.698;2023-02-01T15:29:48;9.08;70.67
67862;DHT22;54665;51.462;6.698;2023-02-01T15:32:30;8.94;70.74
67862;DHT22;54665;51.462;6.698;2023-02-01T15:34:59;8.99;71.30
67862;DHT22;54665;51.462;6.698;2023-02-01T15:37:26;9.00;70.86
67862;DHT22;54665;51.462;6.698;2023-02-01T15:42:28;9.01;70.72
67862;DHT22;54665;51.462;6.698;2023-02-01T15:44:53;8.91;71.58
67862;DHT22;54665;51.462;6.698;2023-02-01T15:47:29;9.03;71.10
67862;DHT22;54665;51.462;6.698;2023-02-01T15:49:58;9.01;70.90
67862;DHT22;54665;51.462;6.698;2023-02-01T15:52:36;8.93;71.19
67862;DHT22;54665;51.462;6.698;2023-02-01T15:55:17;9.08;71.15
67862;DHT22;54665;51.462;6.698;2023-02-01T15:57:44;8.86;71.36
67862;DHT22;54665;51.462;6.698;2023-02-01T16:00:23;8.91;71.68
67862;DHT22;54665;51.462;6.698;2023-02-01T16:03:01;8.87;71.90
67862;DHT22;54665;51.462;6.698;2023-02-01T16:08:06;8.97;71.72
67862;DHT22;54665;51.462;6.698;2023-02-01T16:10:40;8.99;71.81
67862;DHT22;54665;51.462;6.698;2023-02-01T16:13:06;8.67;73.56
67862;DHT22;54665;51.462;6.698;2023-02-01T16:15:32;8.67;74.87
67862;DHT22;54665;51.462;6.698;2023-02-01T16:17:58;8.49;76.11
67862;DHT22;54665;51.462;6.698;2023-02-01T16:20:23;8.43;75.82
67862;DHT22;54665;51.462;6.698;2023-02-01T16:22:51;8.55;75.60
67862;DHT22;54665;51.462;6.698;2023-02-01T16:25:19;8.38;75.25
67862;DHT22;54665;51.462;6.698;2023-02-01T16:27:45;8.46;74.81
67862;DHT22;54665;51.462;6.698;2023-02-01T16:30:10;8.56;74.52
67862;DHT22;54665;51.462;6.698;2023-02-01T16:32:39;8.72;74.31
67862;DHT22;54665;51.462;6.698;2023-02-01T16:35:14;8.77;74.04
67862;DHT22;54665;51.462;6.698;2023-02-01T16:37:47;8.64;74.14
67862;DHT22;54665;51.462;6.698;2023-02-01T16:40:17;8.70;73.64
67862;DHT22;54665;51.462;6.698;2023-02-01T16:42:43;8.80;73.63
67862;DHT22;54665;51.462;6.698;2023-02-01T16:45:12;8.74;73.68
67862;DHT22;54665;51.462;6.698;2023-02-01T16:47:43;8.84;73.26
67862;DHT22;54665;51.462;6.698;2023-02-01T16:50:18;8.88;73.06
67862;DHT22;54665;51.462;6.698;2023-02-01T16:52:45;8.67;73.37
67862;DHT22;54665;51.462;6.698;2023-02-01T16:55:29;8.79;73.40
67862;DHT22;54665;51.462;6.698;2023-02-01T16:57:54;8.69;73.34
67862;DHT22;54665;51.462;6.698;2023-02-01T17:00:20;8.80;73.51
67862;DHT22;54665;51.462;6.698;2023-02-01T17:02:45;8.88;73.01
67862;DHT22;54665;51.462;6.698;2023-02-01T17:05:11;8.66;73.76
67862;DHT22;54665;51.462;6.698;2023-02-01T17:07:38;8.77;73.43
67862;DHT22;54665;51.462;6.698;2023-02-01T17:10:05;8.86;73.39
67862;DHT22;54665;51.462;6.698;2023-02-01T17:12:32;8.70;73.37
67862;DHT22;54665;51.462;6.698;2023-02-01T17:14:59;8.79;73.48
67862;DHT22;54665;51.462;6.698;2023-02-01T17:17:34;8.67;73.60
67862;DHT22;54665;51.462;6.698;2023-02-01T17:20:02;8.67;73.48
67862;DHT22;54665;51.462;6.698;2023-02-01T17:22:28;8.76;73.36
67862;DHT22;54665;51.462;6.698;2023-02-01T17:24:57;8.63;73.40
67862;DHT22;54665;51.462;6.698;2023-02-01T17:27:22;8.97;72.99
67862;DHT22;54665;51.462;6.698;2023-02-01T17:29:51;8.77;73.12
67862;DHT22;54665;51.462;6.698;2023-02-01T17:32:23;8.83;73.40
67862;DHT22;54665;51.462;6.698;2023-02-01T17:35:18;8.84;73.42
67862;DHT22;54665;51.462;6.698;2023-02-01T17:38:11;8.81;73.44
67862;DHT22;54665;51.462;6.698;2023-02-01T17:40:49;8.88;73.58
67862;DHT22;54665;51.462;6.698;2023-02-01T17:44:01;8.70;74.10
67862;DHT22;54665;51.462;6.698;2023-02-01T17:46:41;8.53;74.64
67862;DHT22;54665;51.462;6.698;2023-02-01T17:49:07;8.66;74.52
67862;DHT22;54665;51.462;6.698;2023-02-01T17:51:32;8.55;74.88
67862;DHT22;54665;51.462;6.698;2023-02-01T17:54:00;8.74;74.40
67862;DHT22;54665;51.462;6.698;2023-02-01T17:56:27;8.62;74.82
67862;DHT22;54665;51.462;6.698;2023-02-01T17:58:55;8.57;75.31
67862;DHT22;54665;51.462;6.698;2023-02-01T18:01:24;8.53;75.36
67862;DHT22;54665;51.462;6.698;2023-02-01T18:03:49;8.60;75.47
67862;DHT22;54665;51.462;6.698;2023-02-01T18:06:19;8.53;75.77
67862;DHT22;54665;51.462;6.698;2023-02-01T18:08:45;8.59;75.41
67862;DHT22;54665;51.462;6.698;2023-02-01T18:11:15;8.60;75.23
67862;DHT22;54665;51.462;6.698;2023-02-01T18:13:41;8.52;75.14
67862;DHT22;54665;51.462;6.698;2023-02-01T18:16:29;8.56;75.12
67862;DHT22;54665;51.462;6.698;2023-02-01T18:19:25;8.50;74.98
67862;DHT22;54665;51.462;6.698;2023-02-01T18:22:32;8.43;75.25
67862;DHT22;54665;51.462;6.698;2023-02-01T18:25:21;8.62;74.58
67862;DHT22;54665;51.462;6.698;2023-02-01T18:28:19;8.69;74.43
67862;DHT22;54665;51.462;6.698;2023-02-01T18:31:29;8.67;74.29
67862;DHT22;54665;51.462;6.698;2023-02-01T18:33:57;8.73;74.39
67862;DHT22;54665;51.462;6.698;2023-02-01T18:36:24;8.73;74.27
67862;DHT22;54665;51.462;6.698;2023-02-01T18:38:50;8.69;74.42
67862;DHT22;54665;51.462;6.698;2023-02-01T18:41:20;8.69;74.26
67862;DHT22;54665;51.462;6.698;2023-02-01T18:43:55;8.77;74.31
67862;DHT22;54665;51.462;6.698;2023-02-01T18:46:23;8.70;74.58
67862;DHT22;54665;51.462;6.698;2023-02-01T18:48:53;8.56;74.67
67862;DHT22;54665;51.462;6.698;2023-02-01T18:51:24;8.72;74.35
67862;DHT22;54665;51.462;6.698;2023-02-01T18:53:51;8.66;74.23
67862;DHT22;54665;51.462;6.698;2023-02-01T18:56:17;8.81;74.04
67862;DHT22;54665;51.462;6.698;2023-02-01T18:58:43;8.72;74.39
67862;DHT22;54665;51.462;6.698;2023-02-01T19:01:13;8.77;74.05
67862;DHT22;54665;51.462;6.698;2023-02-01T19:03:40;8.70;74.46
67862;DHT22;54665;51.462;6.698;2023-02-01T19:06:06;8.67;74.35